Time;durP1;ratioP1;P1;durP2;ratioP2;P2;SDS_P1;SDS_P2;PMS_P1;PMS_P2;Temp;Humidity;BMP_temperature;BMP_pressure;BME280_temperature;BME280_humidity;BME280_pressure;Samples;Min_cycle;Max_cycle;Signal;HPM_P1;HPM_P2
2021/12/21 00:02:17;;;;;;;38.50;12.20;;;;;;;-0.26;100.00;101713.09;8305057;28;20057;-63
2021/12/21 00:06:17;;;;;;;25.50;10.93;;;;;;;-0.34;100.00;101707.13;8308619;28;20034;-63
2021/12/21 00:10:20;;;;;;;26.50;12.73;;;;;;;-0.29;100.00;101715.84;8297588;28;20052;-63
2021/12/21 00:14:31;;;;;;;28.00;11.90;;;;;;;-0.14;100.00;101718.06;8316327;28;20057;-63
2021/12/21 00:26:40;;;;;;;29.73;10.85;;;;;;;-0.57;100.00;101706.91;8293408;28;19918;-63
2021/12/21 00:30:41;;;;;;;29.08;13.32;;;;;;;-0.46;100.00;101712.75;8297436;28;20508;-63
2021/12/21 00:34:41;;;;;;;41.72;14.77;;;;;;;-0.52;100.00;101697.00;8324288;28;20037;-63
2021/12/21 00:38:43;;;;;;;33.80;14.63;;;;;;;-0.50;100.00;101703.16;8302876;28;20065;-63
2021/12/21 00:42:44;;;;;;;37.17;14.65;;;;;;;-0.53;100.00;101703.25;8292079;28;20044;-63
2021/12/21 00:46:44;;;;;;;46.35;16.13;;;;;;;-0.42;100.00;101706.44;8291089;28;20041;-63
2021/12/21 00:50:45;;;;;;;38.53;15.00;;;;;;;-0.83;100.00;101696.09;8298614;28;20520;-63
2021/12/21 00:54:45;;;;;;;34.13;14.63;;;;;;;-1.14;100.00;101696.91;8299765;28;20042;-63
2021/12/21 00:58:46;;;;;;;32.90;14.75;;;;;;;-1.02;100.00;101691.31;8303131;28;20409;-63
2021/12/21 01:02:47;;;;;;;42.70;17.65;;;;;;;-0.88;100.00;101690.03;8323589;28;20064;-63
2021/12/21 01:07:04;;;;;;;29.27;12.77;;;;;;;-0.76;100.00;101679.09;8323904;28;20808;-63
2021/12/21 01:11:13;;;;;;;28.90;12.98;;;;;;;-0.86;100.00;101685.56;8323901;28;20042;-63
2021/12/21 01:15:32;;;;;;;32.90;13.48;;;;;;;-1.07;100.00;101688.75;8301586;28;20486;-63
2021/12/21 01:19:38;;;;;;;28.25;12.00;;;;;;;-0.95;100.00;101688.44;8291264;28;20091;-63
2021/12/21 01:24:57;;;;;;;28.15;12.88;;;;;;;-0.88;100.00;101674.09;8289684;28;20397;-63
2021/12/21 01:28:13;;;;;;;32.90;13.35;;;;;;;-0.73;100.00;101678.16;8300722;28;20033;-63
2021/12/21 01:32:27;;;;;;;34.75;11.57;;;;;;;-0.73;100.00;101676.34;8308205;28;20048;-63
2021/12/21 01:36:50;;;;;;;25.52;12.07;;;;;;;-0.69;100.00;101674.50;8308118;28;20145;-63
2021/12/21 01:49:40;;;;;;;34.08;11.88;;;;;;;-0.82;100.00;101673.94;8417573;28;20526;-62
2021/12/21 01:53:41;;;;;;;44.40;12.77;;;;;;;-0.87;100.00;101675.84;8406371;28;20066;-63
2021/12/21 01:57:42;;;;;;;30.33;12.45;;;;;;;-0.87;100.00;101665.25;8399192;28;20040;-63
2021/12/21 02:01:42;;;;;;;39.22;12.90;;;;;;;-1.01;100.00;101672.69;8407657;28;20081;-62
2021/12/21 02:05:43;;;;;;;28.98;12.00;;;;;;;-0.92;100.00;101666.25;8417876;28;20056;-63
2021/12/21 02:09:43;;;;;;;29.80;13.02;;;;;;;-1.05;100.00;101673.69;8382648;28;20040;-63
2021/12/21 02:13:47;;;;;;;30.38;11.55;;;;;;;-1.14;100.00;101665.06;8409162;28;20455;-62
2021/12/21 02:22:12;;;;;;;30.35;12.45;;;;;;;-1.48;100.00;101670.38;8389304;28;20041;-62
2021/12/21 02:26:49;;;;;;;29.45;11.48;;;;;;;-1.31;100.00;101654.88;8373415;28;20380;-62
2021/12/21 02:30:32;;;;;;;23.17;11.38;;;;;;;-1.25;100.00;101651.25;8381890;28;20084;-62
2021/12/21 02:34:33;;;;;;;22.30;11.25;;;;;;;-1.06;100.00;101661.34;8380204;28;20041;-62
2021/12/21 02:38:33;;;;;;;28.90;12.68;;;;;;;-0.96;100.00;101660.19;8399493;28;20040;-62
2021/12/21 02:42:34;;;;;;;30.88;12.90;;;;;;;-1.05;100.00;101649.81;8384569;28;20076;-62
2021/12/21 02:46:34;;;;;;;23.15;10.07;;;;;;;-1.36;100.00;101654.16;8382138;28;20044;-62
2021/12/21 02:50:38;;;;;;;29.63;12.45;;;;;;;-1.13;100.00;101651.78;8386257;28;20146;-63
2021/12/21 02:54:38;;;;;;;26.80;10.75;;;;;;;-1.07;100.00;101650.78;8361360;28;20064;-63
2021/12/21 02:58:39;;;;;;;26.48;12.00;;;;;;;-0.89;100.00;101656.44;8343489;28;20044;-63
2021/12/21 03:02:39;;;;;;;31.85;12.80;;;;;;;-1.00;100.00;101650.56;8364990;28;20044;-63
2021/12/21 03:07:12;;;;;;;28.52;12.55;;;;;;;-1.10;100.00;101657.00;8367931;28;20083;-63
2021/12/21 03:11:07;;;;;;;30.63;12.55;;;;;;;-1.06;100.00;101655.16;8356948;28;20112;-62
2021/12/21 03:15:07;;;;;;;22.58;11.10;;;;;;;-1.12;100.00;101656.19;8363489;28;20101;-62
2021/12/21 03:19:10;;;;;;;28.05;12.90;;;;;;;-1.33;100.00;101654.09;8359243;28;20083;-62
2021/12/21 03:23:10;;;;;;;26.42;11.82;;;;;;;-1.47;100.00;101656.19;8342651;28;20044;-62
2021/12/21 03:27:11;;;;;;;36.15;12.75;;;;;;;-1.45;100.00;101654.38;8340383;28;20064;-62
2021/12/21 03:31:11;;;;;;;31.73;12.98;;;;;;;-1.43;100.00;101641.97;8353140;28;20432;-62
2021/12/21 03:35:12;;;;;;;29.38;12.18;;;;;;;-1.37;100.00;101638.28;8349605;28;20029;-62
2021/12/21 03:39:21;;;;;;;24.15;11.32;;;;;;;-1.33;100.00;101642.59;8343218;28;20099;-62
2021/12/21 03:43:21;;;;;;;33.05;11.15;;;;;;;-1.39;100.00;101648.94;8338275;28;20045;-62
2021/12/21 03:47:23;;;;;;;25.88;11.07;;;;;;;-1.30;100.00;101648.69;8341363;28;20584;-62
2021/12/21 03:51:23;;;;;;;27.52;11.18;;;;;;;-1.21;100.00;101648.47;8348386;28;20048;-62
2021/12/21 03:55:24;;;;;;;28.17;11.80;;;;;;;-1.20;100.00;101644.91;8363287;28;20067;-62
2021/12/21 03:59:24;;;;;;;27.67;11.90;;;;;;;-1.20;100.00;101644.91;8347180;28;20124;-62
2021/12/21 04:03:24;;;;;;;23.92;11.45;;;;;;;-1.26;100.00;101644.16;8351250;28;20045;-62
2021/12/21 04:07:26;;;;;;;25.60;11.60;;;;;;;-1.28;100.00;101646.88;8350770;28;20038;-62
2021/12/21 04:11:26;;;;;;;25.80;12.60;;;;;;;-1.43;100.00;101647.28;8343667;28;20083;-61
2021/12/21 04:15:29;;;;;;;25.92;11.10;;;;;;;-1.33;100.00;101631.97;8356245;28;20045;-61
2021/12/21 04:19:29;;;;;;;24.40;12.07;;;;;;;-1.32;100.00;101636.38;8341210;28;20041;-61
2021/12/21 04:23:29;;;;;;;29.25;12.07;;;;;;;-1.37;100.00;101631.19;8345324;28;20044;-61
2021/12/21 04:27:30;;;;;;;32.75;11.63;;;;;;;-1.40;100.00;101630.41;8356186;28;20060;-61
2021/12/21 04:31:30;;;;;;;27.95;12.23;;;;;;;-1.35;100.00;101629.38;8366972;28;20129;-61
2021/12/21 04:35:31;;;;;;;24.38;10.98;;;;;;;-1.35;100.00;101623.19;8365951;28;20302;-61
2021/12/21 04:39:42;;;;;;;36.05;14.07;;;;;;;-1.46;100.00;101628.78;8362831;28;20111;-61
2021/12/21 04:43:43;;;;;;;26.35;11.38;;;;;;;-1.44;100.00;101619.00;8354396;28;20048;-61
2021/12/21 04:47:44;;;;;;;29.55;10.75;;;;;;;-1.39;100.00;101630.38;8342403;28;20064;-61
2021/12/21 04:51:44;;;;;;;25.20;10.55;;;;;;;-1.46;100.00;101617.31;8340481;28;20026;-61
2021/12/21 04:55:45;;;;;;;26.50;11.32;;;;;;;-1.53;100.00;101626.31;8329956;28;20111;-61
2021/12/21 04:59:45;;;;;;;23.80;10.82;;;;;;;-1.77;100.00;101625.13;8335169;28;20033;-61
2021/12/21 05:03:45;;;;;;;26.45;10.50;;;;;;;-1.69;100.00;101616.97;8358115;28;20037;-61
2021/12/21 05:07:51;;;;;;;22.90;10.75;;;;;;;-1.92;100.00;101624.63;8350218;28;20048;-61
2021/12/21 05:11:53;;;;;;;22.67;10.30;;;;;;;-1.85;100.00;101620.91;8351201;28;20068;-61
2021/12/21 05:15:55;;;;;;;22.77;9.35;;;;;;;-1.88;100.00;101616.56;8355241;28;20329;-61
2021/12/21 05:19:56;;;;;;;29.92;11.05;;;;;;;-1.88;100.00;101615.69;8365273;28;20024;-61
2021/12/21 05:23:56;;;;;;;22.42;9.88;;;;;;;-1.88;100.00;101616.56;8363653;28;20139;-61
2021/12/21 05:27:57;;;;;;;20.05;9.27;;;;;;;-1.89;100.00;101621.91;8357692;28;20047;-61
2021/12/21 05:31:59;;;;;;;28.30;9.77;;;;;;;-1.74;100.00;101614.44;8351406;28;20035;-61
2021/12/21 05:36:00;;;;;;;25.83;10.65;;;;;;;-1.76;100.00;101610.97;8351934;28;20041;-61
2021/12/21 05:40:10;;;;;;;21.17;9.43;;;;;;;-1.78;100.00;101610.13;8348930;28;20356;-61
2021/12/21 05:44:10;;;;;;;22.17;9.38;;;;;;;-1.74;100.00;101619.75;8350032;28;20037;-61
2021/12/21 05:48:11;;;;;;;22.80;9.70;;;;;;;-1.80;100.00;101609.28;8343081;28;20037;-61
2021/12/21 05:52:11;;;;;;;25.75;10.18;;;;;;;-1.68;100.00;101608.16;8336205;28;20029;-61
2021/12/21 05:56:12;;;;;;;27.23;11.18;;;;;;;-1.64;100.00;101617.75;8365285;28;20051;-60
2021/12/21 06:00:17;;;;;;;23.95;9.80;;;;;;;-1.67;100.00;101618.72;8349155;28;20439;-61
2021/12/21 06:04:17;;;;;;;24.80;11.20;;;;;;;-1.73;100.00;101617.97;8341934;28;20029;-61
2021/12/21 06:08:21;;;;;;;25.27;10.48;;;;;;;-1.75;100.00;101620.66;8366086;28;20505;-61
2021/12/21 06:26:09;;;;;;;21.60;10.20;;;;;;;-1.89;100.00;101628.09;8353936;28;20036;-61
2021/12/21 06:29:25;;;;;;;21.90;10.35;;;;;;;-2.03;100.00;101628.41;8368701;28;20685;-61
2021/12/21 06:33:25;;;;;;;28.85;11.85;;;;;;;-1.91;100.00;101627.25;8338893;28;20090;-61
2021/12/21 06:37:26;;;;;;;23.67;9.50;;;;;;;-1.06;100.00;101621.53;8363213;28;20049;-62
2021/12/21 06:41:27;;;;;;;27.40;11.07;;;;;;;-1.69;100.00;101628.47;8329937;28;20045;-61
2021/12/21 06:45:42;;;;;;;24.90;11.35;;;;;;;-1.84;100.00;101635.91;8323764;28;20456;-61
2021/12/21 06:51:21;;;;;;;24.80;10.80;;;;;;;-1.85;100.00;101643.00;8310156;28;20048;-61
2021/12/21 06:54:03;;;;;;;23.70;10.82;;;;;;;-1.95;100.00;101636.19;8342792;28;20050;-61
2021/12/21 06:58:04;;;;;;;25.77;10.50;;;;;;;-1.89;100.00;101635.16;8342583;28;20056;-62
2021/12/21 07:02:05;;;;;;;21.73;10.73;;;;;;;-2.00;100.00;101643.34;8328445;28;20061;-61
2021/12/21 07:06:06;;;;;;;25.20;10.68;;;;;;;-1.95;100.00;101641.47;8340695;28;20129;-61
2021/12/21 07:10:11;;;;;;;44.88;21.90;;;;;;;-1.88;100.00;101647.47;8342081;28;20041;-61
2021/12/21 07:18:33;;;;;;;30.48;15.23;;;;;;;-1.71;100.00;101651.47;8315278;28;20575;-61
2021/12/21 07:22:34;;;;;;;31.20;14.15;;;;;;;-1.74;100.00;101646.25;8314421;28;20418;-61
2021/12/21 07:26:34;;;;;;;23.73;12.40;;;;;;;-2.16;100.00;101661.34;8297167;28;20046;-61
2021/12/21 07:30:35;;;;;;;27.67;13.23;;;;;;;-2.21;100.00;101659.69;8300308;28;20095;-61
2021/12/21 07:34:35;;;;;;;27.30;13.55;;;;;;;-2.02;100.00;101666.34;8301432;28;20033;-61
2021/12/21 07:38:35;;;;;;;28.77;16.67;;;;;;;-1.96;100.00;101660.91;8317936;28;20057;-62
2021/12/21 07:42:36;;;;;;;28.95;14.68;;;;;;;-1.86;100.00;101667.72;8315198;28;20041;-61
2021/12/21 07:46:36;;;;;;;34.08;15.25;;;;;;;-1.91;100.00;101669.63;8294397;28;20038;-61
2021/12/21 07:50:37;;;;;;;32.53;15.63;;;;;;;-2.05;100.00;101662.00;8282566;28;20056;-61
2021/12/21 07:54:38;;;;;;;26.35;13.07;;;;;;;-1.98;100.00;101668.03;8284791;28;20037;-62
2021/12/21 07:58:39;;;;;;;28.58;11.73;;;;;;;-1.95;100.00;101672.38;8285711;28;20041;-62
2021/12/21 08:02:40;;;;;;;29.83;13.38;;;;;;;-1.93;100.00;101676.72;8283828;28;20037;-62
2021/12/21 08:06:43;;;;;;;23.45;12.13;;;;;;;-1.81;100.00;101665.84;8292035;28;20038;-62
2021/12/21 08:10:50;;;;;;;23.88;12.75;;;;;;;-1.79;100.00;101666.69;8291617;28;20045;-62
2021/12/21 08:14:52;;;;;;;31.20;11.48;;;;;;;-1.67;100.00;101663.78;8309618;28;20099;-62
2021/12/21 08:18:52;;;;;;;22.10;10.07;;;;;;;-1.56;100.00;101661.72;8309361;28;20370;-62
2021/12/21 08:22:53;;;;;;;20.73;10.48;;;;;;;-1.44;100.00;101663.22;8286155;28;20119;-62
2021/12/21 08:26:54;;;;;;;22.83;10.75;;;;;;;-1.33;100.00;101664.69;8304447;28;20041;-62
2021/12/21 08:30:54;;;;;;;29.60;11.85;;;;;;;-1.08;100.00;101668.47;8283675;28;20129;-62
2021/12/21 08:34:55;;;;;;;21.80;10.02;;;;;;;-0.86;100.00;101672.28;8287118;28;20517;-62
2021/12/21 08:38:55;;;;;;;23.17;10.88;;;;;;;-0.07;100.00;101679.75;8294235;28;20046;-62
2021/12/21 08:42:55;;;;;;;24.98;10.40;;;;;;;1.42;92.65;101665.91;8296454;28;20521;-62
2021/12/21 08:46:57;;;;;;;13.77;8.10;;;;;;;2.23;87.08;101668.16;8270209;28;20049;-62
2021/12/21 08:50:57;;;;;;;18.63;7.93;;;;;;;2.81;83.63;101663.97;8291402;28;20046;-62
2021/12/21 08:54:58;;;;;;;18.70;7.78;;;;;;;3.21;81.36;101664.91;8280472;28;20062;-62
2021/12/21 08:58:58;;;;;;;15.85;8.25;;;;;;;4.11;78.63;101665.22;8277849;28;20129;-62
2021/12/21 09:02:59;;;;;;;19.05;7.63;;;;;;;3.98;76.63;101654.25;8288024;28;20139;-62
2021/12/21 09:06:59;;;;;;;15.90;7.82;;;;;;;4.00;77.50;101663.03;8291389;28;20413;-62
2021/12/21 09:11:04;;;;;;;13.15;6.50;;;;;;;4.61;75.35;101671.72;8295289;28;20034;-62
2021/12/21 09:15:06;;;;;;;12.48;7.30;;;;;;;4.47;76.59;101668.84;8284477;28;20096;-62
2021/12/21 09:19:06;;;;;;;22.33;7.70;;;;;;;4.98;74.38;101671.63;8293221;28;20116;-63
2021/12/21 09:23:07;;;;;;;12.23;7.13;;;;;;;5.04;74.82;101671.31;8283144;28;20030;-63
2021/12/21 09:27:07;;;;;;;13.38;6.47;;;;;;;5.96;71.76;101669.13;8289485;28;20041;-63
2021/12/21 09:31:08;;;;;;;14.10;7.55;;;;;;;6.00;70.96;101665.31;8261338;28;20322;-63
2021/12/21 09:35:09;;;;;;;12.38;7.35;;;;;;;5.99;70.70;101668.97;8293550;28;20041;-63
2021/12/21 09:39:09;;;;;;;14.90;6.57;;;;;;;6.17;71.40;101670.63;8273146;28;20049;-63
2021/12/21 09:43:11;;;;;;;19.65;8.02;;;;;;;6.14;70.34;101665.44;8282600;28;20026;-63
2021/12/21 09:47:12;;;;;;;15.13;7.22;;;;;;;6.50;69.57;101671.44;8282552;28;20030;-63
2021/12/21 09:51:13;;;;;;;14.48;6.78;;;;;;;6.64;69.92;101690.31;8286460;28;20033;-63
2021/12/21 09:55:16;;;;;;;17.25;7.72;;;;;;;5.65;71.08;101685.09;8298889;28;20466;-63
2021/12/21 09:59:16;;;;;;;15.98;8.35;;;;;;;6.30;70.29;101684.22;8281942;28;20414;-63
2021/12/21 10:03:17;;;;;;;12.82;7.05;;;;;;;5.88;70.06;101671.34;8264835;28;20061;-63
2021/12/21 10:07:19;;;;;;;11.90;6.80;;;;;;;5.88;71.48;101680.28;8251209;28;20478;-63
2021/12/21 10:11:22;;;;;;;12.40;5.72;;;;;;;6.37;70.01;101669.53;8295018;28;20034;-63
2021/12/21 10:15:24;;;;;;;11.50;6.73;;;;;;;5.87;71.97;101664.25;8309795;28;20067;-63
2021/12/21 10:19:24;;;;;;;15.50;6.40;;;;;;;6.06;71.22;101656.94;8274023;28;20038;-63
2021/12/21 10:23:28;;;;;;;13.73;5.32;;;;;;;6.36;70.19;101657.91;8285317;28;20034;-63
2021/12/21 10:27:28;;;;;;;11.57;6.57;;;;;;;6.38;70.69;101642.59;8286753;28;20497;-63
2021/12/21 10:31:36;;;;;;;11.35;6.18;;;;;;;7.39;68.88;101641.94;8287354;28;20460;-63
2021/12/21 10:35:36;;;;;;;11.57;5.68;;;;;;;8.35;64.82;101640.34;8282057;28;20304;-63
2021/12/21 10:39:39;;;;;;;9.55;5.80;;;;;;;7.07;65.18;101641.16;8293816;28;20409;-63
2021/12/21 10:43:39;;;;;;;13.05;6.60;;;;;;;8.04;68.18;101644.09;8281653;28;20061;-63
2021/12/21 10:47:43;;;;;;;10.98;6.35;;;;;;;8.27;64.79;101643.53;8288075;28;20199;-63
2021/12/21 10:52:05;;;;;;;10.65;5.82;;;;;;;7.72;65.39;101631.81;8279569;28;20125;-63
2021/12/21 10:56:09;;;;;;;10.40;5.75;;;;;;;6.98;67.24;101620.22;8280775;28;20062;-63
2021/12/21 11:00:14;;;;;;;15.40;5.32;;;;;;;7.65;66.42;101617.84;8290538;28;20509;-64
2021/12/21 11:04:16;;;;;;;11.80;5.90;;;;;;;7.64;65.25;101618.81;8281991;28;20037;-64
2021/12/21 11:08:25;;;;;;;11.52;5.40;;;;;;;8.19;65.35;101602.72;8288289;28;20034;-64
2021/12/21 11:12:27;;;;;;;15.50;5.90;;;;;;;8.94;62.06;101602.22;8286528;28;20026;-64
2021/12/21 11:16:37;;;;;;;12.68;5.53;;;;;;;8.61;63.30;101588.28;8296285;28;20107;-64
2021/12/21 11:20:40;;;;;;;11.77;5.15;;;;;;;8.43;63.12;101589.50;8300663;28;20413;-64
2021/12/21 11:24:43;;;;;;;12.45;6.13;;;;;;;8.86;63.15;101580.28;8292776;28;20555;-64
2021/12/21 11:28:44;;;;;;;10.98;5.78;;;;;;;8.61;62.69;101574.81;8287724;28;20486;-64
2021/12/21 11:32:49;;;;;;;9.98;4.75;;;;;;;8.41;62.17;101575.25;8280653;28;20094;-64
2021/12/21 11:37:27;;;;;;;13.70;5.97;;;;;;;8.33;63.96;101577.63;8282293;28;20373;-64
2021/12/21 11:41:13;;;;;;;8.57;5.80;;;;;;;8.48;63.48;101576.59;8273922;28;20042;-64
2021/12/21 11:45:21;;;;;;;10.85;5.03;;;;;;;8.28;64.43;101564.44;8291189;28;20029;-64
2021/12/21 11:49:29;;;;;;;16.50;5.57;;;;;;;9.05;63.87;101556.47;8290658;28;21570;-64
2021/12/21 11:53:29;;;;;;;10.77;5.13;;;;;;;8.60;63.54;101543.44;8288793;28;20041;-64
2021/12/21 11:57:40;;;;;;;14.98;5.50;;;;;;;7.18;66.46;101532.97;8309682;28;20042;-64
2021/12/21 12:01:46;;;;;;;14.30;5.07;;;;;;;6.69;69.38;101537.78;8312286;28;20037;-64
2021/12/21 12:06:11;;;;;;;9.57;4.90;;;;;;;5.94;70.98;101536.81;8297712;28;20034;-64
2021/12/21 12:10:15;;;;;;;14.25;5.43;;;;;;;4.96;75.86;101544.91;8294102;28;20045;-64
2021/12/21 12:14:21;;;;;;;13.95;5.60;;;;;;;4.72;77.44;101535.44;8300200;28;20065;-64
2021/12/21 12:18:27;;;;;;;10.65;4.95;;;;;;;4.69;76.71;101534.72;8299913;28;20046;-64
2021/12/21 12:22:46;;;;;;;9.30;4.20;;;;;;;4.97;76.42;101541.25;8300419;28;20041;-64
2021/12/21 12:26:57;;;;;;;11.43;4.30;;;;;;;4.92;74.59;101537.09;8295513;28;20501;-64
2021/12/21 12:30:58;;;;;;;11.43;4.53;;;;;;;4.47;76.27;101528.72;8296549;28;20901;-64
2021/12/21 12:35:06;;;;;;;7.22;4.68;;;;;;;4.71;77.50;101532.84;8287011;28;20401;-64
2021/12/21 12:39:08;;;;;;;9.90;5.10;;;;;;;4.62;77.55;101519.94;8303079;28;20052;-63
2021/12/21 12:43:12;;;;;;;13.02;6.53;;;;;;;4.50;77.67;101520.53;8294107;28;20038;-64
2021/12/21 12:47:15;;;;;;;11.55;5.75;;;;;;;4.50;78.12;101507.16;8278235;28;20420;-64
2021/12/21 12:51:30;;;;;;;13.13;7.30;;;;;;;4.62;78.00;101511.88;8290779;28;20042;-64
2021/12/21 13:00:22;;;;;;;13.20;7.15;;;;;;;4.72;78.08;101510.47;8399898;27;20131;-64
2021/12/21 13:04:22;;;;;;;12.65;6.18;;;;;;;4.77;79.37;101511.97;8389925;27;20066;-64
2021/12/21 13:08:26;;;;;;;11.65;5.93;;;;;;;4.84;78.95;101504.47;8353686;28;20452;-64
2021/12/21 13:12:26;;;;;;;14.98;6.00;;;;;;;5.13;77.56;101510.03;8368682;27;20036;-64
2021/12/21 13:16:31;;;;;;;11.25;5.80;;;;;;;4.90;78.06;101507.69;8387146;27;20029;-64
2021/12/21 13:20:33;;;;;;;12.85;6.50;;;;;;;4.90;77.88;101512.19;8383920;27;20132;-64
2021/12/21 13:24:36;;;;;;;12.80;6.03;;;;;;;4.73;78.68;101510.38;8388810;27;20116;-65
2021/12/21 13:28:46;;;;;;;11.70;5.30;;;;;;;4.80;78.77;101510.94;8358461;27;20390;-64
2021/12/21 13:32:46;;;;;;;13.77;5.78;;;;;;;4.84;78.88;101502.66;8361562;28;20041;-64
2021/12/21 14:23:15;;;;;;;15.80;8.13;;;;;;;4.41;79.14;101499.59;8369867;28;20059;-63
2021/12/21 14:27:17;;;;;;;16.63;8.80;;;;;;;4.37;79.41;101504.25;8410068;28;20047;-63
2021/12/21 14:31:23;;;;;;;20.60;9.07;;;;;;;4.26;80.41;101508.38;8419741;28;20044;-63
2021/12/21 14:35:24;;;;;;;22.15;8.75;;;;;;;4.25;79.75;101506.66;8428258;28;20047;-63
2021/12/21 14:39:29;;;;;;;17.00;8.65;;;;;;;4.18;80.11;101506.13;8412746;28;20545;-63
2021/12/21 14:43:31;;;;;;;15.73;9.20;;;;;;;4.12;80.08;101516.25;8426552;28;20051;-63
2021/12/21 14:47:33;;;;;;;17.90;9.13;;;;;;;4.03;81.02;101517.59;8409672;28;21152;-63
2021/12/21 14:51:48;;;;;;;21.98;9.40;;;;;;;3.93;81.61;101522.50;8417415;28;20044;-63
2021/12/21 14:55:49;;;;;;;17.45;8.82;;;;;;;3.86;82.11;101517.53;8433465;28;20119;-63
2021/12/21 14:59:51;;;;;;;19.83;9.32;;;;;;;3.75;82.54;101510.00;8427265;28;20036;-63
2021/12/21 15:03:51;;;;;;;23.25;9.30;;;;;;;3.66;83.19;101507.78;8423018;28;20506;-63
2021/12/21 15:07:53;;;;;;;23.15;10.60;;;;;;;3.48;84.08;101508.63;8415131;28;20439;-63
2021/12/21 15:11:55;;;;;;;23.80;9.95;;;;;;;3.47;84.05;101501.56;8433479;28;20035;-63
2021/12/21 15:15:56;;;;;;;18.90;10.27;;;;;;;3.39;84.29;101498.38;8429124;28;20028;-63
2021/12/21 15:19:56;;;;;;;19.67;11.05;;;;;;;3.34;84.64;101505.75;8429243;28;20043;-63
2021/12/21 15:24:00;;;;;;;23.25;11.93;;;;;;;3.28;85.07;101500.69;8446231;28;20370;-63
2021/12/21 15:28:00;;;;;;;54.90;28.40;;;;;;;3.15;86.01;101502.22;8448195;28;20115;-63
2021/12/21 15:32:01;;;;;;;26.42;12.25;;;;;;;3.13;86.19;101506.75;8440463;28;20036;-63
2021/12/21 15:36:02;;;;;;;18.20;10.15;;;;;;;2.82;87.68;101503.72;8415698;28;20036;-63
2021/12/21 15:40:06;;;;;;;26.83;10.27;;;;;;;2.90;87.35;101506.88;8414281;28;20119;-63
2021/12/21 15:44:06;;;;;;;18.13;9.85;;;;;;;2.90;87.33;101508.72;8399347;28;20588;-63
2021/12/21 15:48:07;;;;;;;18.60;8.32;;;;;;;2.84;86.77;101515.16;8418394;28;20063;-63
2021/12/21 15:52:07;;;;;;;18.15;9.60;;;;;;;2.76;86.79;101521.78;8420427;28;20053;-63
2021/12/21 15:56:10;;;;;;;19.42;8.48;;;;;;;2.70;86.78;101516.72;8417722;28;20032;-63
2021/12/21 16:00:14;;;;;;;27.20;10.63;;;;;;;2.40;87.91;101516.25;8420969;28;20506;-64
2021/12/21 16:04:19;;;;;;;22.00;10.00;;;;;;;2.44;88.00;101525.00;8406798;28;20044;-63
2021/12/21 16:08:19;;;;;;;18.50;8.82;;;;;;;2.18;89.26;101531.41;8423740;28;20048;-63
2021/12/21 16:12:20;;;;;;;18.52;8.80;;;;;;;2.24;89.33;101539.16;8427035;28;20048;-63
2021/12/21 16:16:20;;;;;;;23.58;10.18;;;;;;;2.14;89.03;101527.13;8426593;28;20036;-63
2021/12/21 16:20:20;;;;;;;18.67;7.57;;;;;;;1.97;89.81;101534.94;8424328;28;20148;-63
2021/12/21 16:24:21;;;;;;;22.08;9.45;;;;;;;2.10;90.85;101538.00;8422675;28;20066;-63
2021/12/21 16:28:22;;;;;;;17.73;8.82;;;;;;;2.15;89.85;101541.31;8431573;28;20067;-63
2021/12/21 16:32:22;;;;;;;18.35;7.57;;;;;;;1.81;90.82;101536.50;8423959;28;20047;-64
2021/12/21 16:36:24;;;;;;;18.70;8.77;;;;;;;1.34;93.08;101542.81;8433966;28;20027;-63
2021/12/21 16:40:24;;;;;;;20.10;9.38;;;;;;;1.32;93.90;101545.53;8404261;28;20062;-64
2021/12/21 16:44:25;;;;;;;19.50;8.88;;;;;;;1.22;94.48;101543.25;8417820;28;20127;-63
2021/12/21 16:48:27;;;;;;;27.73;9.02;;;;;;;1.50;93.37;101546.63;8423118;28;20567;-63
2021/12/21 16:52:30;;;;;;;22.13;8.75;;;;;;;1.93;90.91;101538.69;8437254;28;20042;-63
2021/12/21 16:56:31;;;;;;;18.25;7.85;;;;;;;1.61;91.11;101547.03;8439905;28;20063;-63
2021/12/21 17:00:32;;;;;;;18.20;8.77;;;;;;;1.47;91.86;101544.06;8415316;28;20048;-63
2021/12/21 17:04:32;;;;;;;19.80;8.13;;;;;;;1.44;92.21;101544.19;8413870;28;20039;-63
2021/12/21 17:08:40;;;;;;;22.13;10.18;;;;;;;1.53;92.70;101549.16;8421626;28;20036;-63
2021/12/21 17:12:42;;;;;;;19.90;8.93;;;;;;;1.34;92.35;101545.47;8438544;28;20110;-63
2021/12/21 17:16:42;;;;;;;20.95;9.02;;;;;;;1.24;93.98;101552.03;8406109;28;20090;-63
2021/12/21 17:20:43;;;;;;;21.65;9.00;;;;;;;1.15;93.83;101552.38;8401154;28;20364;-64
2021/12/21 17:24:43;;;;;;;19.52;9.80;;;;;;;1.25;94.49;101554.66;8410845;28;20062;-64
2021/12/21 17:28:45;;;;;;;19.60;9.63;;;;;;;1.37;93.75;101561.34;8413504;28;20560;-64
2021/12/21 17:32:45;;;;;;;22.88;9.88;;;;;;;1.36;93.53;101559.56;8367231;28;20055;-64
2021/12/21 17:36:46;;;;;;;29.75;10.15;;;;;;;1.28;93.83;101556.34;8400630;28;20052;-64
2021/12/21 17:40:46;;;;;;;18.27;9.32;;;;;;;1.18;94.70;101552.25;8401201;28;20036;-64
2021/12/21 17:44:47;;;;;;;21.70;9.88;;;;;;;1.25;93.25;101564.44;8399169;28;20049;-64
2021/12/21 17:48:48;;;;;;;21.73;10.35;;;;;;;1.07;94.43;101559.78;8404641;28;20036;-64
2021/12/21 17:52:50;;;;;;;27.67;11.30;;;;;;;0.82;95.15;101564.25;8431085;28;20062;-64
2021/12/21 17:56:50;;;;;;;40.50;18.38;;;;;;;0.83;94.89;101555.34;8414061;28;20044;-64
2021/12/21 18:00:51;;;;;;;31.85;21.00;;;;;;;0.81;97.08;101551.84;8433058;28;20040;-64
2021/12/21 18:04:51;;;;;;;26.58;12.38;;;;;;;1.08;96.13;101566.84;8389318;28;20041;-64
2021/12/21 18:08:52;;;;;;;29.27;13.73;;;;;;;1.09;96.42;101569.44;8415895;28;20040;-64
2021/12/21 18:12:55;;;;;;;30.08;12.25;;;;;;;1.01;97.25;101571.50;8406619;28;20044;-64
2021/12/21 18:16:55;;;;;;;28.17;13.57;;;;;;;0.75;97.11;101579.56;8377401;28;20376;-64
2021/12/21 18:20:55;;;;;;;31.65;13.40;;;;;;;0.59;98.57;101577.47;8388379;28;20965;-64
2021/12/21 18:24:56;;;;;;;26.55;12.60;;;;;;;0.65;99.53;101585.25;8353605;28;20530;-63
2021/12/21 18:28:56;;;;;;;33.83;14.73;;;;;;;0.45;99.82;101585.06;8394994;28;20363;-64
2021/12/21 18:32:57;;;;;;;43.25;17.20;;;;;;;0.40;100.00;101592.31;8393065;28;20093;-64
2021/12/21 18:36:58;;;;;;;35.03;14.85;;;;;;;0.54;100.00;101595.38;8412602;28;20131;-64
2021/12/21 18:40:58;;;;;;;27.67;13.38;;;;;;;0.22;100.00;101588.47;8414159;28;20044;-64
2021/12/21 18:45:00;;;;;;;32.97;13.48;;;;;;;0.15;100.00;101586.06;8418134;28;20103;-64
2021/12/21 18:49:04;;;;;;;36.05;12.77;;;;;;;0.18;100.00;101592.13;8418195;28;20517;-64
2021/12/21 18:53:05;;;;;;;30.30;14.40;;;;;;;0.09;100.00;101588.91;8396532;28;20046;-64
2021/12/21 18:57:08;;;;;;;30.90;14.50;;;;;;;0.03;100.00;101600.59;8401066;28;20120;-64
2021/12/21 19:01:08;;;;;;;33.33;14.65;;;;;;;0.36;100.00;101599.50;8417400;28;20119;-64
2021/12/21 19:05:10;;;;;;;51.53;22.27;;;;;;;0.68;100.00;101614.41;8416210;28;20040;-64
2021/12/21 19:09:13;;;;;;;35.47;16.20;;;;;;;0.37;98.93;101619.00;8381837;28;20452;-64
2021/12/21 19:13:14;;;;;;;36.90;16.60;;;;;;;0.07;99.25;101604.03;8417039;28;20040;-64
2021/12/21 19:17:14;;;;;;;44.92;17.45;;;;;;;0.16;100.00;101603.75;8417065;28;20047;-64
2021/12/21 19:21:16;;;;;;;45.65;19.40;;;;;;;0.29;100.00;101605.09;8414743;28;20044;-64
2021/12/21 19:25:17;;;;;;;42.38;17.88;;;;;;;0.23;100.00;101602.63;8398621;28;20054;-64
2021/12/21 19:29:20;;;;;;;45.80;20.50;;;;;;;0.29;100.00;101599.75;8407835;28;20380;-64
2021/12/21 19:33:22;;;;;;;39.40;17.73;;;;;;;0.25;100.00;101598.13;8399309;28;20056;-64
2021/12/21 19:37:23;;;;;;;35.63;17.42;;;;;;;0.27;100.00;101596.31;8397983;28;20048;-64
2021/12/21 19:41:24;;;;;;;39.28;17.45;;;;;;;0.29;99.92;101605.09;8415803;28;20506;-64
2021/12/21 19:45:27;;;;;;;30.38;13.98;;;;;;;0.32;99.46;101595.22;8398711;28;20041;-64
2021/12/21 19:49:27;;;;;;;33.53;15.60;;;;;;;0.29;98.92;101594.44;8367023;28;20098;-64
2021/12/21 19:53:28;;;;;;;30.70;14.57;;;;;;;0.19;98.90;101598.31;8401655;28;20123;-64
2021/12/21 19:57:29;;;;;;;40.63;16.17;;;;;;;-0.01;100.00;101602.50;8412049;28;20079;-64
2021/12/21 20:01:29;;;;;;;31.67;13.68;;;;;;;-0.14;100.00;101606.44;8401769;28;20040;-64